WMKKWMKE

Guest
Details From WMKK - Kuala Lumpur Intl - Sepang
To WMKE - Kerteh
Flight Number -
Tags generated
Created
Modified
Stats Distance 151 nm / 279 km
Max Altitude 15,300 ft / 4,663 m
Waypoints 3
Social Downloads 0
Likes 0
Share VATSIM

Download

Looking for another format? Having issues loading an existing format? Contact us
Advertisement - Login to hide

Notes

Basic altitude profile: - Ascent Rate: 2500ft/min - Ascent Speed: 250kts - Cruise Altitude: 35000ft - Cruise Speed: 420kts - Descent Rate: 1500ft/min - Descent Speed: 250kts Options: - Use NATs: yes - Use PACOTS: yes - Use low airways: yes - Use high airways: yes

Route

WMKK KIMAT WMKE

ID Type Via Altitude Latitude Longitude Leg Dist Tot Dist Heading (true) Name
O WMKK APT - 0 ft / 0 m 2.74558˚ 101.70991˚ - 0 nm - Kuala Lumpur Intl - Sepang
KIMAT FIX - 15,300 ft / 4,663 m 3.16083˚ 102.34944˚ 45 nm 45 nm 57° / 57° -
O WMKE APT - 0 ft / 0 m 4.53722˚ 103.42675˚ 104 nm 150 nm 38° / 38° Kerteh

Altitude Profile

Advertisement - Login to hide

WMKK

Details ICAO WMKK (KUL)
Name Kuala Lumpur Intl - Sepang
Region Malaysia (Peninsular Malaysia)
Timezone Asia/Kuala_Lumpur (UTC+8.0)
Stats Elevation 70 ft / 21 m (AMSL)
Location 2.745578° 101.709913°
Runways 2
Magnetic Variation 0.000° E

METAR

WMKK 140400Z VRB02KT 9999 FEW018 SCT140 BKN280 31/25 Q1012 NOSIG

Decode

TAF

TAF WMKK 131700Z 1318/1500 31005KT 9999 FEW017CB SCT140 BKN280 PROB30 TEMPO 1320/1400 3000 TSRA FEW015CB SCT018

Decode

Departure Runways

ID Width Length Bearing (true) Bearing (mag) Surface Threshold Offset Overrun Length
14L 197 ft / 60 m 13,577 ft / 4,138 m 146.13° 146.13° Asphalt 500 ft / 152 m 0 ft / 0 m
14R 197 ft / 60 m 13,337 ft / 4,065 m 146.22° 146.22° Asphalt 500 ft / 152 m 0 ft / 0 m
32L 197 ft / 60 m 13,337 ft / 4,065 m 326.22° 326.22° Asphalt 500 ft / 152 m 0 ft / 0 m
32R 197 ft / 60 m 13,577 ft / 4,138 m 326.13° 326.13° Asphalt 500 ft / 152 m 0 ft / 0 m

WMKE

Details ICAO WMKE (KTE)
Name Kerteh
Region Malaysia (Peninsular Malaysia)
Timezone Asia/Kuala_Lumpur (UTC+8.0)
Stats Elevation 18 ft / 5 m (AMSL)
Location 4.537223° 103.426754°
Runways 1
Magnetic Variation 0.027° E

METAR

WMKE 140400Z VRB02KT 9999 SCT018 SCT140 BKN270 29/23 Q1012

Decode

TAF

Not found

Destination Runways

ID Width Length Bearing (true) Bearing (mag) Surface Threshold Offset Overrun Length
16 98 ft / 30 m 4,469 ft / 1,362 m 162.68° 162.65° Asphalt 0 ft / 0 m 130 ft / 40 m
34 98 ft / 30 m 4,469 ft / 1,362 m 342.68° 342.65° Asphalt 0 ft / 0 m 0 ft / 0 m

Approach Navaids

Runway Type Ident Frequency Range Bearing (true) Bearing (mag) Slope Elevation
34 Localiser IKE 108.70 MHz 18 nm / 33 km 342.74° 342.71° - 18 ft / 5 m (AMSL)
34 Glidescope IKE 108.70 MHz 10 nm / 19 km 342.68° 342.65° 3.00° 18 ft / 5 m (AMSL)

Popular Alternatives